Time;durP1;ratioP1;P1;durP2;ratioP2;P2;SDS_P1;SDS_P2;PMS_P1;PMS_P2;Temp;Humidity;BMP_temperature;BMP_pressure;BME280_temperature;BME280_humidity;BME280_pressure;Samples;Min_cycle;Max_cycle;Signal;HPM_P1;HPM_P2
2023/08/01 00:00:09;;;;;;;0.40;0.40;;;;;;;19.74;100.00;99070.34;4969944;28;20468;-64
2023/08/01 00:02:38;;;;;;;0.50;0.50;;;;;;;19.74;100.00;99059.41;4954251;28;20514;-64
2023/08/01 00:05:04;;;;;;;0.82;0.77;;;;;;;19.65;100.00;99067.59;4968001;28;20041;-64
2023/08/01 00:07:30;;;;;;;0.93;0.57;;;;;;;19.63;100.00;99072.00;4970640;28;20046;-64
2023/08/01 00:09:55;;;;;;;0.40;0.40;;;;;;;19.68;100.00;99061.25;4970483;28;20047;-65
2023/08/01 00:12:21;;;;;;;0.85;0.50;;;;;;;19.69;100.00;99062.00;4971441;28;20463;-64
2023/08/01 00:14:47;;;;;;;2.08;0.63;;;;;;;19.67;100.00;99059.72;4969363;28;20138;-63
2023/08/01 00:17:12;;;;;;;1.35;0.40;;;;;;;19.68;100.00;99047.59;4951084;28;20561;-63
2023/08/01 00:19:37;;;;;;;1.42;0.73;;;;;;;19.67;100.00;99050.75;4955144;28;20034;-65
2023/08/01 00:22:03;;;;;;;0.80;0.50;;;;;;;19.63;100.00;99047.41;4954538;28;20078;-64
2023/08/01 00:24:28;;;;;;;0.70;0.40;;;;;;;19.64;100.00;99030.59;4969485;28;20073;-64
2023/08/01 00:26:55;;;;;;;0.73;0.55;;;;;;;19.52;100.00;99026.03;4987781;28;20480;-63
2023/08/01 00:29:23;;;;;;;0.52;0.40;;;;;;;19.51;100.00;99029.22;5052182;28;20032;-64
2023/08/01 00:31:48;;;;;;;0.35;0.30;;;;;;;19.55;100.00;99018.91;5034083;28;20474;-65
2023/08/01 00:34:13;;;;;;;0.85;0.60;;;;;;;19.52;100.00;99017.06;5051450;28;20025;-66
2023/08/01 00:36:39;;;;;;;0.85;0.30;;;;;;;19.52;100.00;99006.91;5044166;28;20032;-65
2023/08/01 00:39:04;;;;;;;1.20;0.57;;;;;;;19.52;100.00;98998.72;5050288;28;20037;-64
2023/08/01 00:41:30;;;;;;;0.68;0.38;;;;;;;19.44;100.00;99002.19;5047155;28;20059;-66
2023/08/01 00:43:55;;;;;;;0.65;0.30;;;;;;;19.45;100.00;98988.09;5031258;28;20117;-63
2023/08/01 00:46:21;;;;;;;0.38;0.30;;;;;;;19.42;100.00;98986.28;5050493;28;20478;-66
2023/08/01 00:48:47;;;;;;;0.50;0.40;;;;;;;19.40;100.00;98975.03;5048189;28;20037;-63
2023/08/01 00:51:12;;;;;;;0.60;0.45;;;;;;;19.44;100.00;98978.38;5031603;28;20033;-64
2023/08/01 00:53:39;;;;;;;0.80;0.30;;;;;;;19.43;100.00;98976.88;5031124;28;20124;-66
2023/08/01 00:56:05;;;;;;;0.40;0.20;;;;;;;19.45;100.00;98979.16;5031671;28;20033;-64
2023/08/01 00:58:30;;;;;;;2.20;0.50;;;;;;;19.44;100.00;98983.09;5033365;28;20041;-67
2023/08/01 01:00:56;;;;;;;0.95;0.40;;;;;;;19.43;100.00;98970.66;5025808;28;20086;-69
2023/08/01 01:03:23;;;;;;;0.65;0.43;;;;;;;19.44;100.00;98970.19;5046043;28;20033;-64
2023/08/01 01:06:11;;;;;;;0.45;0.30;;;;;;;19.47;100.00;98968.53;5051754;28;20069;-65
2023/08/01 01:08:37;;;;;;;0.55;0.55;;;;;;;19.38;100.00;98966.56;5047513;28;20112;-67
2023/08/01 01:11:04;;;;;;;1.10;0.60;;;;;;;19.30;100.00;98959.84;5050758;28;20117;-64
2023/08/01 01:13:29;;;;;;;0.20;0.15;;;;;;;19.45;100.00;98949.13;5047678;28;20108;-66
2023/08/01 01:15:55;;;;;;;0.32;0.30;;;;;;;19.41;100.00;98943.81;5048517;28;20131;-67
2023/08/01 01:18:20;;;;;;;1.25;0.43;;;;;;;19.35;100.00;98951.09;5035644;28;20028;-64
2023/08/01 01:20:46;;;;;;;0.43;0.28;;;;;;;19.37;100.00;98953.34;5031568;28;20558;-64
2023/08/01 01:23:11;;;;;;;0.28;0.25;;;;;;;19.31;100.00;98947.72;5050749;28;20017;-66
2023/08/01 01:25:38;;;;;;;0.32;0.30;;;;;;;19.33;100.00;98947.28;5028332;28;20480;-65
2023/08/01 01:28:06;;;;;;;0.95;0.70;;;;;;;19.40;100.00;98942.28;5027597;28;20108;-64
2023/08/01 01:30:33;;;;;;;0.95;0.40;;;;;;;19.41;100.00;98935.63;5047018;28;20108;-65
2023/08/01 01:33:00;;;;;;;0.70;0.30;;;;;;;19.32;100.00;98937.53;5050041;28;20040;-64
2023/08/01 01:35:26;;;;;;;0.60;0.43;;;;;;;19.28;100.00;98931.50;5048824;28;20021;-66
2023/08/01 01:37:51;;;;;;;1.15;0.70;;;;;;;19.30;100.00;98938.00;5026878;28;20033;-63
2023/08/01 01:40:17;;;;;;;0.40;0.40;;;;;;;19.27;100.00;98924.50;5044793;28;20079;-64
2023/08/01 01:42:42;;;;;;;0.43;0.38;;;;;;;19.24;100.00;98920.72;5045868;28;20028;-65
2023/08/01 01:45:08;;;;;;;1.05;0.65;;;;;;;19.24;100.00;98911.78;5050085;28;20382;-64
2023/08/01 01:47:33;;;;;;;1.48;0.50;;;;;;;19.24;100.00;98912.53;5047060;28;20094;-64
2023/08/01 01:49:59;;;;;;;0.55;0.43;;;;;;;19.21;100.00;98921.63;5050115;28;20104;-64
2023/08/01 01:52:24;;;;;;;1.42;0.40;;;;;;;19.33;100.00;98909.06;5047136;28;20090;-64
2023/08/01 01:54:49;;;;;;;1.10;0.45;;;;;;;19.30;100.00;98910.69;5036320;28;20529;-65
2023/08/01 01:57:15;;;;;;;1.88;0.45;;;;;;;19.20;100.00;98894.78;5030108;28;20044;-66
2023/08/01 01:59:41;;;;;;;0.80;0.70;;;;;;;19.38;100.00;98900.25;5030786;28;20488;-65
2023/08/01 02:02:06;;;;;;;0.50;0.43;;;;;;;19.24;100.00;98890.69;5011373;28;20033;-64
2023/08/01 02:04:31;;;;;;;2.13;0.80;;;;;;;19.27;100.00;98889.03;5033131;28;20087;-65
2023/08/01 02:06:57;;;;;;;0.77;0.60;;;;;;;19.20;100.00;98881.88;5030893;28;20025;-64
2023/08/01 02:09:22;;;;;;;1.17;0.80;;;;;;;19.18;100.00;98884.31;5031939;28;20603;-64
2023/08/01 02:11:49;;;;;;;1.42;0.70;;;;;;;19.17;100.00;98882.81;5024266;28;20064;-64
2023/08/01 02:14:14;;;;;;;1.25;0.70;;;;;;;19.23;100.00;98886.44;5047034;28;20029;-63
2023/08/01 02:16:39;;;;;;;0.65;0.47;;;;;;;19.21;100.00;98877.97;5027024;28;20071;-64
2023/08/01 02:19:05;;;;;;;0.60;0.60;;;;;;;19.33;100.00;98876.31;5041690;28;20485;-63
2023/08/01 02:21:33;;;;;;;1.45;0.65;;;;;;;19.26;100.00;98877.34;5031709;28;20035;-63
2023/08/01 02:23:58;;;;;;;1.33;0.73;;;;;;;19.23;100.00;98878.25;5029494;28;20032;-63
2023/08/01 02:26:24;;;;;;;1.40;0.50;;;;;;;19.18;100.00;98875.38;5027481;28;20036;-66
2023/08/01 02:28:50;;;;;;;0.90;0.68;;;;;;;19.22;100.00;98870.53;5048536;28;20032;-66
2023/08/01 02:31:16;;;;;;;0.95;0.40;;;;;;;19.25;100.00;98877.78;5020929;28;20059;-64
2023/08/01 02:33:42;;;;;;;1.27;0.73;;;;;;;19.23;100.00;98866.56;5019892;28;20027;-66
2023/08/01 02:36:07;;;;;;;1.55;0.73;;;;;;;19.24;100.00;98862.66;5025997;28;20146;-65
2023/08/01 02:38:33;;;;;;;2.88;1.00;;;;;;;19.19;100.00;98860.50;5050358;28;20044;-67
2023/08/01 02:40:59;;;;;;;2.30;1.00;;;;;;;19.32;100.00;98864.63;5027210;28;20130;-64
2023/08/01 02:43:24;;;;;;;1.25;1.13;;;;;;;19.34;100.00;98867.66;5031484;28;20037;-64
2023/08/01 02:45:49;;;;;;;1.20;0.90;;;;;;;19.33;100.00;98876.31;5043381;28;20028;-66
2023/08/01 02:48:16;;;;;;;1.65;0.77;;;;;;;19.36;100.00;98870.69;5024876;28;20057;-67
2023/08/01 02:50:41;;;;;;;0.93;0.80;;;;;;;19.34;100.00;98862.19;5049239;28;20048;-66
2023/08/01 02:53:07;;;;;;;0.90;0.80;;;;;;;19.33;100.00;98854.47;5030974;28;20029;-65
2023/08/01 02:55:32;;;;;;;1.83;1.05;;;;;;;19.33;100.00;98841.56;5048110;28;20028;-64
2023/08/01 02:57:58;;;;;;;2.33;1.55;;;;;;;19.34;100.00;98854.00;5024338;28;20026;-64
2023/08/01 03:00:23;;;;;;;1.40;1.02;;;;;;;19.28;100.00;98855.06;5012152;28;20032;-64
2023/08/01 03:02:49;;;;;;;2.38;1.08;;;;;;;19.43;100.00;98850.50;5026781;28;20029;-66
2023/08/01 03:05:14;;;;;;;1.90;1.02;;;;;;;19.32;100.00;98841.97;5025646;28;20071;-65
2023/08/01 03:07:39;;;;;;;2.45;0.98;;;;;;;19.35;100.00;98836.41;5044355;28;20113;-65
2023/08/01 03:10:06;;;;;;;1.58;1.13;;;;;;;19.37;100.00;98842.19;5023661;28;20029;-65
2023/08/01 03:12:32;;;;;;;1.33;1.00;;;;;;;19.31;100.00;98840.47;5024947;28;20035;-65
2023/08/01 03:14:58;;;;;;;1.48;1.08;;;;;;;19.26;100.00;98844.56;5043216;28;20037;-65
2023/08/01 03:17:23;;;;;;;3.65;1.20;;;;;;;19.32;100.00;98826.41;5050064;28;20396;-66
2023/08/01 03:19:49;;;;;;;2.83;1.33;;;;;;;19.39;100.00;98834.28;5022266;28;20033;-65
2023/08/01 03:22:14;;;;;;;2.00;1.50;;;;;;;19.42;100.00;98818.94;5038458;28;20035;-64
2023/08/01 03:24:40;;;;;;;2.15;1.35;;;;;;;19.42;100.00;98824.41;5029782;28;20458;-64
2023/08/01 03:27:05;;;;;;;5.30;1.40;;;;;;;19.38;100.00;98821.06;5045566;28;20020;-63
2023/08/01 03:29:31;;;;;;;2.55;1.48;;;;;;;19.33;100.00;98824.44;5029542;28;20039;-64
2023/08/01 03:31:56;;;;;;;2.17;1.45;;;;;;;19.30;100.00;98820.59;5029285;28;20033;-66
2023/08/01 03:34:22;;;;;;;1.80;1.48;;;;;;;19.29;100.00;98816.38;5031684;28;20507;-66
2023/08/01 03:36:47;;;;;;;1.95;1.17;;;;;;;19.33;100.00;98818.97;5035408;22;20435;-64
2023/08/01 03:39:13;;;;;;;2.67;1.55;;;;;;;19.42;100.00;98819.69;5079888;28;20045;-64
2023/08/01 03:41:38;;;;;;;2.47;1.63;;;;;;;19.37;100.00;98809.41;4997891;28;20724;-65
2023/08/01 03:44:04;;;;;;;2.25;1.30;;;;;;;19.35;100.00;98819.28;5045153;28;20056;-64
2023/08/01 03:46:32;;;;;;;1.33;1.00;;;;;;;19.39;100.00;98809.72;5001218;28;20784;-63
2023/08/01 03:48:57;;;;;;;2.80;1.55;;;;;;;19.38;100.00;98808.19;5001094;28;20060;-63
2023/08/01 03:51:22;;;;;;;2.20;1.20;;;;;;;19.36;100.00;98802.41;4999490;28;20056;-63
2023/08/01 03:53:48;;;;;;;1.55;1.15;;;;;;;19.34;100.00;98801.34;5068252;28;20030;-62
2023/08/01 03:56:13;;;;;;;2.67;1.40;;;;;;;19.38;100.00;98797.25;5068268;28;20037;-63
2023/08/01 03:58:39;;;;;;;2.20;1.50;;;;;;;19.38;100.00;98794.53;4992668;28;20038;-64
2023/08/01 04:01:06;;;;;;;2.20;1.40;;;;;;;19.37;100.00;98793.03;4988909;28;20027;-64
2023/08/01 04:03:32;;;;;;;2.20;1.40;;;;;;;19.44;100.00;98795.44;4989862;28;20425;-66
2023/08/01 04:05:57;;;;;;;3.42;1.88;;;;;;;19.41;100.00;98801.06;4980213;28;20042;-66
2023/08/01 04:08:23;;;;;;;1.80;1.20;;;;;;;19.41;100.00;98790.91;4983918;28;20097;-64
2023/08/01 04:10:49;;;;;;;1.98;1.30;;;;;;;19.42;100.00;98795.13;4989125;28;20030;-63
2023/08/01 04:13:15;;;;;;;1.40;1.13;;;;;;;19.33;100.00;98803.34;4981728;28;20510;-65
2023/08/01 04:15:40;;;;;;;2.42;1.70;;;;;;;19.31;100.00;98797.56;5064495;28;20037;-65
2023/08/01 04:18:06;;;;;;;1.85;1.27;;;;;;;19.33;100.00;98799.84;5063317;28;20034;-63
2023/08/01 04:20:31;;;;;;;3.08;1.58;;;;;;;19.34;100.00;98802.13;4987595;28;20070;-64
2023/08/01 04:22:57;;;;;;;2.05;1.42;;;;;;;19.39;100.00;98798.78;4997235;28;20034;-63
2023/08/01 04:25:24;;;;;;;1.83;1.27;;;;;;;19.43;100.00;98807.56;4990909;28;20025;-63
2023/08/01 04:27:50;;;;;;;2.03;1.40;;;;;;;19.46;100.00;98805.88;4994471;28;20095;-64
2023/08/01 04:30:15;;;;;;;2.80;1.83;;;;;;;19.38;100.00;98810.91;4996457;28;20041;-65
2023/08/01 04:32:41;;;;;;;3.13;1.85;;;;;;;19.33;100.00;98800.63;4997281;28;20050;-64
2023/08/01 04:35:06;;;;;;;2.00;1.25;;;;;;;19.35;100.00;98800.91;5003264;28;20084;-68
2023/08/01 04:37:32;;;;;;;2.28;1.45;;;;;;;19.39;100.00;98808.94;5069155;28;20041;-70
2023/08/01 04:39:58;;;;;;;2.13;1.50;;;;;;;19.40;100.00;98800.28;4994714;28;20122;-68
2023/08/01 04:42:23;;;;;;;2.20;1.10;;;;;;;19.35;100.00;98802.88;5009175;28;20026;-68
2023/08/01 04:44:48;;;;;;;2.83;1.70;;;;;;;19.39;100.00;98798.78;5009892;28;20390;-68
2023/08/01 04:47:14;;;;;;;3.67;1.65;;;;;;;19.45;100.00;98798.91;5004184;28;20038;-69
2023/08/01 04:49:39;;;;;;;1.75;1.30;;;;;;;19.40;100.00;98792.09;4999287;28;20079;-68
2023/08/01 04:52:05;;;;;;;2.60;1.33;;;;;;;19.45;100.00;98796.19;4996869;28;20045;-68
2023/08/01 04:54:31;;;;;;;2.72;1.35;;;;;;;19.35;100.00;98803.66;5008039;28;20054;-68
2023/08/01 04:56:56;;;;;;;1.42;0.90;;;;;;;19.31;100.00;98800.28;4997536;28;20387;-68
2023/08/01 04:59:22;;;;;;;2.97;1.73;;;;;;;19.36;100.00;98802.41;4998949;28;20089;-68
2023/08/01 05:01:47;;;;;;;2.55;1.40;;;;;;;19.38;100.00;98796.50;4996054;28;20046;-67
2023/08/01 05:04:13;;;;;;;2.05;1.33;;;;;;;19.34;100.00;98790.44;5002771;28;20046;-68
2023/08/01 05:06:38;;;;;;;3.05;1.35;;;;;;;19.51;100.00;98792.34;5004011;28;20087;-68
2023/08/01 05:09:04;;;;;;;2.15;1.35;;;;;;;19.48;100.00;98795.25;5005857;28;20109;-68
2023/08/01 05:11:29;;;;;;;1.55;1.23;;;;;;;19.47;100.00;98782.84;4998811;28;20038;-68
2023/08/01 05:13:55;;;;;;;7.80;1.55;;;;;;;19.50;100.00;98781.91;4986310;28;20046;-67
2023/08/01 05:16:23;;;;;;;6.97;1.75;;;;;;;19.48;100.00;98785.09;4973996;28;20086;-69
2023/08/01 05:18:49;;;;;;;2.38;1.35;;;;;;;19.50;100.00;98788.13;4990043;28;20045;-68
2023/08/01 05:21:23;;;;;;;2.20;1.15;;;;;;;19.39;100.00;98787.88;5007405;28;20030;-67
2023/08/01 05:23:48;;;;;;;3.53;1.48;;;;;;;19.42;100.00;98789.66;5058247;28;20160;-68
2023/08/01 05:26:14;;;;;;;2.80;1.42;;;;;;;19.49;100.00;98789.31;4988613;28;20186;-67
2023/08/01 05:28:39;;;;;;;2.80;1.65;;;;;;;19.55;100.00;98784.75;5067340;28;20060;-68
2023/08/01 05:31:05;;;;;;;1.58;1.35;;;;;;;19.61;100.00;98796.56;5000569;28;20030;-68
2023/08/01 05:33:30;;;;;;;2.28;1.17;;;;;;;19.61;100.00;98795.81;5000395;28;20034;-68
2023/08/01 05:35:56;;;;;;;2.55;1.77;;;;;;;19.53;100.00;98800.84;5069946;28;20045;-68
2023/08/01 05:38:21;;;;;;;4.15;1.65;;;;;;;19.47;100.00;98791.75;5072450;28;20510;-68
2023/08/01 05:40:47;;;;;;;2.30;0.98;;;;;;;19.48;100.00;98792.53;5002872;28;20038;-68
2023/08/01 05:43:12;;;;;;;3.70;1.45;;;;;;;19.51;100.00;98797.81;5000735;28;20509;-69
2023/08/01 05:45:41;;;;;;;1.83;1.38;;;;;;;19.53;100.00;98806.31;4997154;28;20037;-70
2023/08/01 05:48:06;;;;;;;2.28;1.20;;;;;;;19.54;100.00;98804.34;4991815;28;20045;-70
2023/08/01 05:50:32;;;;;;;2.35;1.23;;;;;;;19.56;100.00;98797.22;4993127;28;20053;-69
2023/08/01 05:52:57;;;;;;;1.98;0.98;;;;;;;19.47;100.00;98799.94;4999500;28;20033;-68
2023/08/01 05:55:23;;;;;;;1.88;1.00;;;;;;;19.58;100.00;98799.47;4999653;28;20502;-69
2023/08/01 05:58:09;;;;;;;2.03;0.85;;;;;;;19.39;100.00;98795.28;4998818;28;20397;-69
2023/08/01 06:00:34;;;;;;;1.20;0.82;;;;;;;19.44;100.00;98794.66;5024745;28;20045;-69
2023/08/01 06:03:00;;;;;;;1.10;0.98;;;;;;;19.43;100.00;98793.94;5018173;28;20540;-69
2023/08/01 06:05:26;;;;;;;1.65;1.15;;;;;;;19.41;100.00;98806.50;5020284;28;20113;-68
2023/08/01 06:07:51;;;;;;;1.13;0.70;;;;;;;19.46;100.00;98795.72;5017067;28;20045;-68
2023/08/01 06:10:16;;;;;;;1.90;1.00;;;;;;;19.51;100.00;98792.34;5003744;28;21005;-69
2023/08/01 06:12:44;;;;;;;1.52;1.02;;;;;;;19.46;100.00;98795.72;4999650;28;20240;-68
2023/08/01 06:15:09;;;;;;;2.75;1.40;;;;;;;19.49;100.00;98791.31;5023168;28;20116;-68
2023/08/01 06:17:35;;;;;;;1.60;1.00;;;;;;;19.62;100.00;98791.88;5027258;28;20037;-68
2023/08/01 06:20:04;;;;;;;1.10;0.85;;;;;;;19.68;100.00;98790.78;5028688;28;20597;-68
2023/08/01 06:22:29;;;;;;;1.88;1.27;;;;;;;19.70;100.00;98790.34;5025647;28;20037;-68
2023/08/01 06:24:55;;;;;;;5.55;1.27;;;;;;;19.63;100.00;98780.47;5022514;28;20052;-69
2023/08/01 06:27:20;;;;;;;2.08;1.05;;;;;;;19.69;100.00;98786.06;5017685;28;20505;-68
2023/08/01 06:29:45;;;;;;;2.85;0.95;;;;;;;19.77;100.00;98784.53;5020611;28;20425;-68
2023/08/01 06:32:11;;;;;;;0.73;0.55;;;;;;;19.66;100.00;98787.00;5023536;28;20062;-68
2023/08/01 06:34:37;;;;;;;2.63;1.33;;;;;;;19.62;100.00;98786.41;5022146;28;20107;-68
2023/08/01 06:37:03;;;;;;;2.28;1.52;;;;;;;19.66;100.00;98779.56;5015040;28;20046;-68
2023/08/01 06:39:29;;;;;;;1.05;0.90;;;;;;;19.71;100.00;98781.66;5065670;28;20594;-68
2023/08/01 06:41:55;;;;;;;1.02;0.65;;;;;;;19.71;100.00;98795.31;5066708;28;20034;-68
2023/08/01 06:44:20;;;;;;;1.92;1.00;;;;;;;19.80;100.00;98800.75;4997637;28;20041;-68
2023/08/01 06:46:46;;;;;;;2.22;0.98;;;;;;;19.88;100.00;98800.44;5068879;28;20125;-68
2023/08/01 06:49:11;;;;;;;2.95;1.15;;;;;;;19.77;100.00;98804.41;5008340;28;20621;-68
2023/08/01 06:51:37;;;;;;;2.92;1.00;;;;;;;19.80;100.00;98802.75;4997885;28;20034;-68
2023/08/01 06:54:02;;;;;;;1.30;0.88;;;;;;;19.83;100.00;98806.50;5071124;28;20030;-70
2023/08/01 06:56:28;;;;;;;3.67;1.15;;;;;;;19.84;100.00;98799.84;5063874;28;20045;-69
2023/08/01 06:58:53;;;;;;;2.47;1.25;;;;;;;19.86;100.00;98802.84;5001142;28;20501;-68
2023/08/01 07:01:19;;;;;;;2.28;1.42;;;;;;;20.04;100.00;98816.41;4994969;28;20500;-68
2023/08/01 07:03:45;;;;;;;1.80;1.35;;;;;;;19.91;100.00;98805.72;5001714;28;20030;-68
2023/08/01 07:06:10;;;;;;;1.75;1.27;;;;;;;19.90;100.00;98814.38;5002631;28;20034;-68
2023/08/01 07:08:36;;;;;;;2.95;1.00;;;;;;;19.84;100.00;98816.22;4997316;28;20042;-68
2023/08/01 07:11:02;;;;;;;2.65;1.33;;;;;;;19.90;100.00;98825.31;5067550;28;20071;-68
2023/08/01 07:13:28;;;;;;;3.03;1.13;;;;;;;19.83;100.00;98825.63;5006179;28;20047;-68
2023/08/01 07:15:53;;;;;;;1.70;0.98;;;;;;;19.89;100.00;98827.28;5000528;28;20021;-68
2023/08/01 07:18:39;;;;;;;1.02;0.80;;;;;;;19.91;100.00;98826.81;5064776;28;20395;-68
2023/08/01 07:21:05;;;;;;;0.95;0.88;;;;;;;19.78;100.00;98824.31;5024447;28;20045;-68
2023/08/01 07:23:33;;;;;;;1.13;0.80;;;;;;;19.84;100.00;98810.75;5039241;28;20175;-68
2023/08/01 07:25:58;;;;;;;2.97;1.08;;;;;;;19.91;100.00;98822.09;5044217;28;20436;-68
2023/08/01 07:28:24;;;;;;;2.05;0.90;;;;;;;19.96;100.00;98818.75;5040583;28;20223;-69
2023/08/01 07:30:58;;;;;;;2.40;1.05;;;;;;;20.16;100.00;98820.91;5041148;28;20025;-68
2023/08/01 07:33:24;;;;;;;1.20;1.02;;;;;;;20.15;100.00;98813.94;5025321;28;20456;-68
2023/08/01 07:35:49;;;;;;;1.58;0.98;;;;;;;20.25;100.00;98827.13;5044079;28;20029;-68
2023/08/01 07:38:14;;;;;;;3.00;0.93;;;;;;;20.31;100.00;98824.50;5019076;28;20124;-67
2023/08/01 07:40:40;;;;;;;1.80;1.30;;;;;;;20.55;100.00;98828.00;5046396;28;20509;-68
2023/08/01 07:43:05;;;;;;;1.88;1.10;;;;;;;20.59;100.00;98834.81;5038989;28;20048;-68
2023/08/01 07:45:34;;;;;;;1.33;0.82;;;;;;;20.62;100.00;98825.66;5027177;28;20060;-68
2023/08/01 07:47:59;;;;;;;2.22;1.17;;;;;;;20.67;100.00;98832.47;5046242;28;20195;-68
2023/08/01 07:50:26;;;;;;;1.15;0.88;;;;;;;20.64;100.00;98823.22;5037861;28;20041;-68
2023/08/01 07:52:51;;;;;;;1.33;0.82;;;;;;;20.74;100.00;98820.41;5042008;28;20174;-68
2023/08/01 07:55:18;;;;;;;0.82;0.70;;;;;;;20.74;100.00;98821.16;5038441;28;20041;-68
2023/08/01 07:57:44;;;;;;;3.70;0.93;;;;;;;20.91;99.72;98824.19;5029988;28;20516;-68
2023/08/01 08:00:10;;;;;;;2.47;0.75;;;;;;;20.95;98.89;98833.75;4999654;28;20052;-68
2023/08/01 08:02:42;;;;;;;1.67;0.65;;;;;;;20.99;98.18;98834.34;4988883;28;20098;-68
2023/08/01 08:05:09;;;;;;;1.98;0.90;;;;;;;20.90;97.82;98828.19;4997399;28;20393;-68
2023/08/01 08:07:34;;;;;;;2.65;0.85;;;;;;;20.88;97.56;98839.59;4999650;28;20690;-68
2023/08/01 08:10:00;;;;;;;0.68;0.65;;;;;;;20.99;97.70;98828.84;4993047;28;20117;-68
2023/08/01 08:12:25;;;;;;;2.47;0.77;;;;;;;21.07;97.75;98841.00;5064214;28;20050;-69
2023/08/01 08:14:51;;;;;;;1.60;1.20;;;;;;;21.21;96.21;98840.25;5068728;28;20509;-67
2023/08/01 08:17:16;;;;;;;2.30;1.45;;;;;;;21.39;95.24;98847.50;4990963;28;20061;-67
2023/08/01 08:19:41;;;;;;;2.03;0.85;;;;;;;21.45;94.21;98845.63;5002206;28;20046;-67
2023/08/01 08:22:07;;;;;;;4.55;1.15;;;;;;;21.50;94.71;98840.25;5066226;28;20038;-67
2023/08/01 08:24:32;;;;;;;1.42;1.05;;;;;;;21.62;93.71;98837.69;5001241;28;20019;-67
2023/08/01 08:26:58;;;;;;;2.05;0.82;;;;;;;21.84;93.06;98840.81;4990623;28;20402;-69
2023/08/01 08:29:44;;;;;;;2.95;1.30;;;;;;;21.96;93.06;98834.25;4996144;28;20039;-67
2023/08/01 08:32:09;;;;;;;4.50;1.00;;;;;;;22.13;93.73;98827.03;5024149;28;20076;-67
2023/08/01 08:34:35;;;;;;;1.50;1.20;;;;;;;22.31;92.45;98832.28;5022229;28;20076;-67
2023/08/01 08:37:00;;;;;;;0.93;0.75;;;;;;;22.39;91.64;98833.38;5022714;28;20041;-68
2023/08/01 08:39:25;;;;;;;9.02;1.00;;;;;;;22.30;91.39;98837.00;5009893;28;20635;-67
2023/08/01 08:41:52;;;;;;;1.50;0.95;;;;;;;22.36;88.95;98846.06;5027669;28;20048;-67
2023/08/01 08:44:20;;;;;;;2.40;1.38;;;;;;;22.06;89.09;98839.16;5029950;28;20060;-67
2023/08/01 08:46:52;;;;;;;3.00;1.30;;;;;;;21.85;89.50;98843.09;5029979;28;20037;-67
2023/08/01 08:49:20;;;;;;;2.70;1.13;;;;;;;21.69;88.79;98846.28;5014792;28;20406;-67
2023/08/01 08:51:46;;;;;;;2.50;0.90;;;;;;;21.56;89.31;98840.34;5010008;28;20037;-67
2023/08/01 08:54:13;;;;;;;1.25;0.82;;;;;;;21.47;90.18;98852.16;5011767;28;20098;-66
2023/08/01 08:56:40;;;;;;;2.40;1.27;;;;;;;21.71;90.82;98841.09;5022794;28;20449;-68
2023/08/01 08:59:07;;;;;;;1.58;1.10;;;;;;;22.15;91.25;98836.28;5024346;28;20044;-67
2023/08/01 09:01:53;;;;;;;1.38;0.88;;;;;;;22.61;91.31;98838.44;5029234;28;20163;-66
2023/08/01 09:04:19;;;;;;;0.80;0.77;;;;;;;23.14;88.64;98838.75;4988207;28;20038;-67
2023/08/01 09:06:48;;;;;;;3.42;1.38;;;;;;;23.34;87.71;98835.25;4981398;28;20703;-67
2023/08/01 09:09:14;;;;;;;3.35;1.00;;;;;;;23.39;85.04;98838.03;5014432;28;20041;-67
2023/08/01 09:11:46;;;;;;;4.22;1.65;;;;;;;23.58;83.17;98838.44;5041636;28;20540;-68
2023/08/01 09:14:12;;;;;;;3.40;1.27;;;;;;;23.51;82.26;98833.38;5021509;28;21538;-67
2023/08/01 09:16:39;;;;;;;2.72;1.33;;;;;;;23.48;81.42;98837.13;5040098;28;20037;-67
2023/08/01 09:19:05;;;;;;;4.57;1.27;;;;;;;23.59;81.84;98835.22;5006426;28;20037;-67
2023/08/01 09:21:33;;;;;;;3.22;1.70;;;;;;;23.47;82.24;98830.09;5035477;28;20077;-67
2023/08/01 09:24:11;;;;;;;2.53;1.42;;;;;;;23.33;81.42;98834.47;5032209;28;20061;-67
2023/08/01 09:26:37;;;;;;;1.58;1.23;;;;;;;23.46;82.24;98832.09;5034645;28;20053;-67
2023/08/01 09:29:02;;;;;;;3.95;1.30;;;;;;;23.29;81.75;98837.41;5035994;28;20045;-67
2023/08/01 09:31:35;;;;;;;2.63;1.40;;;;;;;23.50;81.61;98827.13;5039888;28;20215;-67
2023/08/01 09:34:05;;;;;;;4.43;1.30;;;;;;;23.56;80.27;98827.94;5037609;28;20076;-67
2023/08/01 09:36:31;;;;;;;1.10;0.95;;;;;;;23.33;80.83;98828.22;5029500;28;20077;-67
2023/08/01 09:39:01;;;;;;;4.75;1.05;;;;;;;23.48;80.45;98831.63;5034880;28;20041;-67
2023/08/01 09:41:31;;;;;;;1.73;1.20;;;;;;;23.68;82.55;98829.53;5021641;28;20042;-67
2023/08/01 09:44:17;;;;;;;1.35;0.85;;;;;;;23.74;83.79;98826.81;4993954;28;20540;-67
2023/08/01 09:46:43;;;;;;;2.00;1.00;;;;;;;23.69;84.04;98835.78;5026754;28;20050;-67
2023/08/01 09:49:12;;;;;;;2.05;0.80;;;;;;;23.60;82.55;98839.47;5016217;28;20069;-67
2023/08/01 09:51:51;;;;;;;1.13;0.73;;;;;;;23.34;83.56;98844.25;5024872;28;20143;-68
2023/08/01 09:54:17;;;;;;;0.82;0.82;;;;;;;23.23;84.99;98830.34;5024119;28;20522;-67
2023/08/01 09:56:45;;;;;;;1.13;0.80;;;;;;;23.38;85.42;98835.78;5025463;28;20038;-67
2023/08/01 09:59:11;;;;;;;1.38;0.50;;;;;;;23.53;85.84;98839.16;5019187;28;20145;-67
2023/08/01 10:01:39;;;;;;;1.15;0.85;;;;;;;23.85;84.97;98844.16;5024641;28;20060;-67
2023/08/01 10:04:07;;;;;;;0.93;0.73;;;;;;;24.15;83.56;98830.88;5022649;28;20058;-67
2023/08/01 10:06:36;;;;;;;0.77;0.55;;;;;;;24.30;84.01;98830.72;5028080;28;20434;-67
2023/08/01 10:09:02;;;;;;;0.85;0.60;;;;;;;24.68;82.55;98830.88;5026459;28;20041;-67
2023/08/01 10:11:34;;;;;;;1.13;0.60;;;;;;;24.92;79.83;98839.53;5022758;28;20045;-67
2023/08/01 10:14:00;;;;;;;0.70;0.68;;;;;;;25.18;76.78;98838.56;5023764;28;20041;-67
2023/08/01 10:16:26;;;;;;;0.90;0.70;;;;;;;25.08;76.19;98851.84;5024458;28;20037;-68
2023/08/01 10:18:51;;;;;;;0.60;0.60;;;;;;;25.11;75.16;98844.56;5016096;28;20691;-67
2023/08/01 10:21:18;;;;;;;0.60;0.55;;;;;;;25.17;74.87;98839.81;5021506;28;20443;-67
2023/08/01 10:23:45;;;;;;;0.43;0.43;;;;;;;25.32;73.16;98841.09;5015077;28;20253;-67
2023/08/01 10:26:12;;;;;;;2.33;0.40;;;;;;;25.31;72.52;98836.84;4996706;28;20382;-67
2023/08/01 10:28:49;;;;;;;0.70;0.65;;;;;;;25.24;72.79;98842.09;4994028;28;20061;-67
2023/08/01 10:31:17;;;;;;;1.08;0.52;;;;;;;25.34;71.53;98841.34;4991335;28;20045;-68
2023/08/01 10:33:46;;;;;;;0.63;0.40;;;;;;;25.16;72.17;98843.84;4993129;28;20065;-67
2023/08/01 10:36:19;;;;;;;0.30;0.22;;;;;;;25.15;72.44;98843.06;5001074;28;20724;-66
2023/08/01 10:38:53;;;;;;;1.70;0.55;;;;;;;25.54;70.07;98835.63;5056134;28;20098;-67
2023/08/01 10:41:34;;;;;;;2.13;0.68;;;;;;;25.40;69.35;98830.34;4987127;28;20026;-67
2023/08/01 10:44:13;;;;;;;2.40;0.40;;;;;;;25.39;69.63;98837.88;5015004;28;20047;-67
2023/08/01 10:46:56;;;;;;;0.73;0.47;;;;;;;25.57;68.73;98831.13;4999535;28;20112;-67
2023/08/01 10:49:39;;;;;;;0.60;0.38;;;;;;;25.72;66.67;98835.13;5000751;28;20045;-67
2023/08/01 10:52:23;;;;;;;0.93;0.38;;;;;;;25.87;65.26;98843.91;5080357;28;20034;-67
2023/08/01 10:55:03;;;;;;;0.30;0.30;;;;;;;25.85;65.58;98837.38;5058642;28;20065;-66
2023/08/01 10:57:30;;;;;;;1.20;0.52;;;;;;;25.99;65.20;98839.13;4995426;28;20066;-67
2023/08/01 10:59:56;;;;;;;3.83;0.52;;;;;;;26.23;63.31;98844.13;4992897;28;20121;-67
2023/08/01 11:02:27;;;;;;;1.27;0.25;;;;;;;26.28;63.92;98835.84;5063475;28;20065;-67
2023/08/01 11:05:00;;;;;;;1.13;0.47;;;;;;;26.52;62.21;98836.00;4996505;28;20033;-67
2023/08/01 11:07:25;;;;;;;2.53;0.40;;;;;;;26.76;61.88;98822.38;4992637;28;20437;-67
2023/08/01 11:10:08;;;;;;;0.70;0.30;;;;;;;26.90;60.27;98820.53;4990449;28;20109;-67
2023/08/01 11:12:39;;;;;;;0.75;0.45;;;;;;;26.68;59.09;98826.13;4986745;28;20390;-69
2023/08/01 11:15:09;;;;;;;0.43;0.20;;;;;;;26.50;59.67;98827.47;4993095;28;20916;-68
2023/08/01 11:17:36;;;;;;;0.30;0.30;;;;;;;26.33;61.57;98823.25;5057685;28;20042;-67
2023/08/01 11:20:04;;;;;;;0.22;0.22;;;;;;;26.25;62.49;98825.78;4992501;28;20030;-67
2023/08/01 11:22:31;;;;;;;0.40;0.32;;;;;;;26.28;59.24;98822.03;4983485;28;20075;-67
2023/08/01 11:24:56;;;;;;;0.50;0.20;;;;;;;26.38;59.64;98830.78;4993318;28;20035;-67